Time;durP1;ratioP1;P1;durP2;ratioP2;P2;SDS_P1;SDS_P2;PMS_P1;PMS_P2;Temp;Humidity;BMP_temperature;BMP_pressure;BME280_temperature;BME280_humidity;BME280_pressure;Samples;Min_cycle;Max_cycle;Signal;HPM_P1;HPM_P2
2022/10/19 00:01:04;;;;;;;21.42;12.15;;;;;13.50;95028.00;;;;7393274;19;20136;-76
2022/10/19 00:03:32;;;;;;;14.93;11.98;;;;;13.40;95033.00;;;;7393354;19;20143;-75
2022/10/19 00:06:33;;;;;;;17.75;12.38;;;;;13.30;95019.00;;;;7394925;19;20582;-76
2022/10/19 00:09:05;;;;;;;17.13;12.82;;;;;13.40;95027.00;;;;7392707;19;20160;-75
2022/10/19 00:11:41;;;;;;;17.33;11.70;;;;;13.30;95023.00;;;;7395077;19;20616;-76
2022/10/19 00:14:15;;;;;;;17.67;12.50;;;;;13.30;95027.00;;;;7390790;19;20143;-75
2022/10/19 00:16:51;;;;;;;16.42;12.02;;;;;13.20;95018.00;;;;7392478;19;20113;-75
2022/10/19 00:19:22;;;;;;;18.55;12.40;;;;;13.20;95020.00;;;;7395011;19;20136;-75
2022/10/19 00:21:56;;;;;;;17.70;12.38;;;;;13.20;95019.00;;;;7395969;19;20129;-76
2022/10/19 00:24:23;;;;;;;16.08;12.80;;;;;13.20;95015.00;;;;7390771;19;20148;-75
2022/10/19 00:26:51;;;;;;;20.30;13.23;;;;;13.30;95017.00;;;;7392807;19;20189;-76
2022/10/19 00:29:25;;;;;;;17.80;13.15;;;;;13.20;95020.00;;;;7394159;19;20224;-75
2022/10/19 00:31:52;;;;;;;20.80;13.73;;;;;13.20;95015.00;;;;7395025;19;20125;-76
2022/10/19 00:34:20;;;;;;;18.80;13.20;;;;;13.30;95023.00;;;;7389041;19;20135;-75
2022/10/19 00:36:54;;;;;;;19.33;13.32;;;;;13.20;95019.00;;;;7392647;19;20191;-75
2022/10/19 00:39:22;;;;;;;20.25;13.27;;;;;13.10;95023.00;;;;7392314;19;20149;-75
2022/10/19 00:41:49;;;;;;;18.20;12.20;;;;;12.90;95015.00;;;;7393866;19;20137;-76
2022/10/19 00:44:36;;;;;;;18.90;11.95;;;;;12.80;95020.00;;;;7390761;19;20147;-74
2022/10/19 00:47:13;;;;;;;18.30;12.63;;;;;12.80;95015.00;;;;7391803;19;20155;-75
2022/10/19 00:49:47;;;;;;;15.23;11.13;;;;;12.60;95006.00;;;;7392668;19;20216;-74
2022/10/19 00:52:18;;;;;;;18.67;10.45;;;;;12.40;95016.00;;;;7389153;19;20162;-75
2022/10/19 00:54:48;;;;;;;17.02;10.70;;;;;12.50;95013.00;;;;7389725;19;20166;-75
2022/10/19 00:57:25;;;;;;;22.15;12.27;;;;;12.40;95010.00;;;;7392026;19;20144;-75
2022/10/19 00:59:54;;;;;;;19.08;11.77;;;;;12.20;95016.00;;;;7393682;19;20133;-74
2022/10/19 01:02:29;;;;;;;18.92;12.38;;;;;12.20;95009.00;;;;7388842;19;20161;-76
2022/10/19 01:04:58;;;;;;;18.75;11.52;;;;;12.10;95024.00;;;;7389291;19;20145;-74
2022/10/19 01:07:27;;;;;;;20.85;12.32;;;;;12.30;95016.00;;;;7391647;19;20149;-74
2022/10/19 01:10:02;;;;;;;17.83;11.13;;;;;12.20;95015.00;;;;7397347;19;20212;-74
2022/10/19 01:12:51;;;;;;;20.27;11.45;;;;;12.10;95011.00;;;;7397369;19;20170;-75
2022/10/19 01:15:47;;;;;;;19.95;12.20;;;;;12.10;95009.00;;;;7396250;19;20169;-75
2022/10/19 01:18:30;;;;;;;24.08;12.68;;;;;12.00;95001.00;;;;7396877;19;20572;-75
2022/10/19 01:21:25;;;;;;;26.98;13.30;;;;;12.00;95004.00;;;;7397719;19;20145;-76
2022/10/19 01:24:04;;;;;;;30.52;14.77;;;;;12.10;95005.00;;;;7399018;19;20158;-76
2022/10/19 01:27:12;;;;;;;29.45;14.07;;;;;12.00;94999.00;;;;7397210;19;20159;-76
2022/10/19 01:30:07;;;;;;;32.05;14.65;;;;;12.10;94991.00;;;;7399657;19;20143;-76
2022/10/19 01:32:51;;;;;;;29.90;14.10;;;;;12.10;94989.00;;;;7396610;19;20757;-74
2022/10/19 01:35:36;;;;;;;26.05;14.80;;;;;12.00;94978.00;;;;7396756;19;20612;-75
2022/10/19 01:38:20;;;;;;;34.80;15.25;;;;;12.00;94985.00;;;;7396172;19;20611;-75
2022/10/19 01:40:59;;;;;;;41.35;16.67;;;;;12.10;94983.00;;;;7397074;19;20479;-74
2022/10/19 01:44:01;;;;;;;33.40;15.32;;;;;12.00;94982.00;;;;7397823;19;20152;-75
2022/10/19 01:46:40;;;;;;;31.50;16.30;;;;;12.00;94982.00;;;;7395421;19;20613;-75
2022/10/19 01:49:45;;;;;;;40.03;15.65;;;;;12.30;94977.00;;;;7397637;19;20136;-75
2022/10/19 01:52:17;;;;;;;34.83;14.18;;;;;12.00;94965.00;;;;7393514;19;20201;-76
2022/10/19 01:54:55;;;;;;;28.48;14.18;;;;;11.80;94961.00;;;;7396137;19;20148;-76
2022/10/19 01:57:36;;;;;;;34.05;15.18;;;;;11.90;94962.00;;;;7397807;19;20644;-74
2022/10/19 02:00:15;;;;;;;33.58;17.60;;;;;11.90;94958.00;;;;7395468;19;20893;-76
2022/10/19 02:02:47;;;;;;;37.78;16.95;;;;;12.20;94953.00;;;;7395522;19;20144;-75
2022/10/19 02:05:29;;;;;;;36.72;18.08;;;;;12.10;94951.00;;;;7396786;19;20156;-75
2022/10/19 02:08:09;;;;;;;36.03;16.17;;;;;11.90;94958.00;;;;7398574;19;20148;-74
2022/10/19 02:10:45;;;;;;;36.55;17.35;;;;;12.00;94949.00;;;;7394773;19;20140;-75
2022/10/19 02:13:17;;;;;;;42.55;18.63;;;;;11.90;94949.00;;;;7398095;19;20614;-76
2022/10/19 02:15:58;;;;;;;40.67;18.65;;;;;11.80;94957.00;;;;7395638;19;20144;-75
2022/10/19 02:18:35;;;;;;;45.22;19.08;;;;;12.00;94965.00;;;;7393865;19;20143;-75
2022/10/19 02:21:09;;;;;;;40.35;18.25;;;;;12.00;94950.00;;;;7396171;19;20228;-75
2022/10/19 02:23:37;;;;;;;43.97;18.98;;;;;11.80;94959.00;;;;7397080;19;20137;-75
2022/10/19 02:26:05;;;;;;;34.40;16.42;;;;;11.80;94954.00;;;;7397984;19;20133;-75
2022/10/19 02:28:39;;;;;;;36.13;19.17;;;;;12.00;94950.00;;;;7396054;19;20153;-75
2022/10/19 02:31:06;;;;;;;43.88;17.60;;;;;12.00;94949.00;;;;7395924;19;20145;-75
2022/10/19 02:33:36;;;;;;;40.55;18.70;;;;;11.90;94955.00;;;;7397713;19;20158;-75
2022/10/19 02:36:11;;;;;;;42.97;16.63;;;;;11.80;94953.00;;;;7393075;19;20132;-76
2022/10/19 02:38:39;;;;;;;32.67;15.93;;;;;11.50;94954.00;;;;7395416;19;20136;-75
2022/10/19 02:41:20;;;;;;;37.95;17.67;;;;;11.70;94955.00;;;;7396994;19;20141;-75
2022/10/19 02:44:46;;;;;;;30.85;15.45;;;;;11.60;94941.00;;;;7398574;19;20153;-75
2022/10/19 02:47:21;;;;;;;32.30;14.85;;;;;11.40;94946.00;;;;7396354;19;20133;-74
2022/10/19 02:49:55;;;;;;;35.95;14.68;;;;;11.30;94948.00;;;;7398821;19;20148;-76
2022/10/19 02:52:22;;;;;;;29.77;14.05;;;;;11.30;94941.00;;;;7394049;19;20155;-76
2022/10/19 02:54:49;;;;;;;26.65;12.40;;;;;11.40;94935.00;;;;7395327;19;20137;-75
2022/10/19 02:57:25;;;;;;;75.43;19.75;;;;;11.50;94935.00;;;;7396994;19;20132;-75
2022/10/19 02:59:52;;;;;;;593.17;30.88;;;;;11.70;94938.00;;;;7396892;19;20733;-75
2022/10/19 03:02:21;;;;;;;107.22;20.73;;;;;11.80;94940.00;;;;7393311;19;20182;-76
2022/10/19 03:04:55;;;;;;;542.70;31.83;;;;;11.80;94947.00;;;;7395297;19;20147;-75
2022/10/19 03:07:22;;;;;;;367.65;26.58;;;;;11.90;94941.00;;;;7394373;19;20664;-75
2022/10/19 03:09:50;;;;;;;313.40;24.83;;;;;12.00;94934.00;;;;7395738;19;20162;-74
2022/10/19 03:12:24;;;;;;;244.07;26.52;;;;;12.10;94934.00;;;;7393194;19;20141;-77
2022/10/19 03:14:52;;;;;;;121.13;18.65;;;;;12.10;94923.00;;;;7393937;19;20706;-76
2022/10/19 03:17:21;;;;;;;724.08;42.33;;;;;12.20;94920.00;;;;7395250;19;20145;-75
2022/10/19 03:19:56;;;;;;;216.43;25.45;;;;;12.20;94931.00;;;;7396373;19;20144;-75
2022/10/19 03:22:26;;;;;;;286.80;28.75;;;;;12.20;94920.00;;;;7394722;19;20132;-76
2022/10/19 03:24:59;;;;;;;166.68;27.02;;;;;12.30;94924.00;;;;7393571;19;20860;-75
2022/10/19 03:27:33;;;;;;;203.98;27.70;;;;;12.30;94920.00;;;;7391180;19;20145;-76
2022/10/19 03:30:02;;;;;;;208.38;28.02;;;;;12.40;94919.00;;;;7396813;19;20136;-75
2022/10/19 03:32:33;;;;;;;222.77;23.20;;;;;12.40;94915.00;;;;7390902;19;20616;-75
2022/10/19 03:35:07;;;;;;;290.65;23.75;;;;;12.50;94923.00;;;;7393138;19;20148;-75
2022/10/19 03:37:35;;;;;;;438.55;34.45;;;;;12.50;94916.00;;;;7393449;19;20144;-75
2022/10/19 03:40:04;;;;;;;245.38;22.92;;;;;12.50;94913.00;;;;7396857;19;20638;-75
2022/10/19 03:42:38;;;;;;;422.30;29.30;;;;;12.60;94916.00;;;;7391912;19;20144;-74
2022/10/19 03:45:14;;;;;;;217.05;26.33;;;;;12.60;94910.00;;;;7392235;19;20196;-75
2022/10/19 03:47:49;;;;;;;333.80;28.63;;;;;12.70;94918.00;;;;7397031;19;20129;-74
2022/10/19 03:50:17;;;;;;;88.97;23.58;;;;;12.70;94924.00;;;;7390847;19;20148;-74
2022/10/19 03:52:44;;;;;;;142.57;23.23;;;;;12.70;94922.00;;;;7391989;19;20680;-75
2022/10/19 03:55:19;;;;;;;106.75;23.55;;;;;12.70;94915.00;;;;7394052;19;20212;-75
2022/10/19 03:57:47;;;;;;;80.25;23.50;;;;;12.70;94913.00;;;;7394622;19;20495;-74
2022/10/19 04:00:14;;;;;;;256.40;31.92;;;;;12.80;94919.00;;;;7391032;19;20137;-75
2022/10/19 04:02:50;;;;;;;403.25;28.35;;;;;12.80;94912.00;;;;7394098;19;20645;-74
2022/10/19 04:05:25;;;;;;;492.30;32.95;;;;;12.80;94913.00;;;;7392977;19;20149;-75
2022/10/19 04:07:52;;;;;;;181.15;24.48;;;;;12.80;94912.00;;;;7393040;19;20598;-74
2022/10/19 04:10:26;;;;;;;376.50;26.08;;;;;12.80;94909.00;;;;7391651;19;20499;-75
2022/10/19 04:13:02;;;;;;;470.52;25.80;;;;;12.80;94911.00;;;;7392721;19;20655;-75
2022/10/19 04:15:30;;;;;;;413.27;23.73;;;;;12.80;94911.00;;;;7393278;19;20673;-74
2022/10/19 04:18:04;;;;;;;353.45;23.35;;;;;12.80;94912.00;;;;7395202;19;20628;-74
2022/10/19 04:20:40;;;;;;;421.50;23.42;;;;;12.70;94917.00;;;;7391777;19;20596;-74
2022/10/19 04:23:15;;;;;;;297.02;21.25;;;;;12.80;94918.00;;;;7393439;19;20151;-74
2022/10/19 04:25:45;;;;;;;156.45;15.32;;;;;12.80;94921.00;;;;7394290;19;20140;-75
2022/10/19 04:28:18;;;;;;;325.98;19.80;;;;;12.70;94931.00;;;;7392937;19;20145;-75
2022/10/19 04:30:52;;;;;;;297.98;21.33;;;;;12.70;94921.00;;;;7392367;19;20152;-74
2022/10/19 04:33:19;;;;;;;93.65;18.17;;;;;12.70;94919.00;;;;7393249;19;20149;-75
2022/10/19 04:35:46;;;;;;;349.17;26.27;;;;;12.80;94915.00;;;;7395734;19;20584;-76
2022/10/19 04:38:20;;;;;;;370.30;29.00;;;;;12.90;94911.00;;;;7389880;19;20129;-75
2022/10/19 04:40:48;;;;;;;115.32;20.20;;;;;12.80;94909.00;;;;7392051;19;20137;-75
2022/10/19 04:43:15;;;;;;;331.05;30.27;;;;;12.80;94909.00;;;;7394983;19;20121;-75
2022/10/19 04:45:57;;;;;;;151.07;24.35;;;;;12.90;94909.00;;;;7397053;19;20167;-75
2022/10/19 04:48:25;;;;;;;130.88;23.70;;;;;12.90;94903.00;;;;7397508;19;20148;-75
2022/10/19 04:50:59;;;;;;;264.80;28.30;;;;;12.80;94902.00;;;;7399105;19;20522;-76
2022/10/19 04:53:26;;;;;;;219.35;28.50;;;;;12.90;94904.00;;;;7400552;19;20153;-76
2022/10/19 04:55:54;;;;;;;179.25;26.13;;;;;12.90;94898.00;;;;7401059;19;20129;-76
2022/10/19 04:58:32;;;;;;;265.77;32.22;;;;;13.00;94909.00;;;;7397467;19;20152;-76
2022/10/19 05:01:07;;;;;;;169.40;23.40;;;;;13.00;94907.00;;;;7398464;19;20145;-75
2022/10/19 05:03:41;;;;;;;387.40;29.27;;;;;13.00;94915.00;;;;7400154;19;20129;-74
2022/10/19 05:06:10;;;;;;;501.20;33.78;;;;;13.00;94908.00;;;;7395808;19;20176;-74
2022/10/19 05:08:39;;;;;;;493.35;29.20;;;;;13.00;94909.00;;;;7397673;19;20129;-75
2022/10/19 05:11:15;;;;;;;284.70;25.45;;;;;13.00;94903.00;;;;7398451;19;20611;-74
2022/10/19 05:13:42;;;;;;;150.60;21.25;;;;;13.00;94904.00;;;;7400836;19;20170;-74
2022/10/19 05:16:17;;;;;;;146.73;21.95;;;;;13.00;94917.00;;;;7396209;19;20144;-75
2022/10/19 05:18:58;;;;;;;187.57;25.38;;;;;13.00;94908.00;;;;7397480;19;20180;-75
2022/10/19 05:21:27;;;;;;;512.22;32.75;;;;;13.00;94908.00;;;;7397569;19;20136;-74
2022/10/19 05:24:04;;;;;;;194.70;25.65;;;;;13.00;94908.00;;;;7396384;19;20616;-75
2022/10/19 05:26:32;;;;;;;98.60;21.55;;;;;13.00;94906.00;;;;7396453;19;20149;-76
2022/10/19 05:29:03;;;;;;;436.40;27.33;;;;;13.00;94894.00;;;;7396952;19;20129;-74
2022/10/19 05:31:40;;;;;;;448.05;26.48;;;;;13.00;94892.00;;;;7398015;19;20495;-76
2022/10/19 05:34:07;;;;;;;502.60;30.60;;;;;13.00;94898.00;;;;7400568;19;20592;-75
2022/10/19 05:36:38;;;;;;;456.42;28.30;;;;;13.00;94893.00;;;;7395086;19;20139;-76
2022/10/19 05:39:19;;;;;;;471.88;26.42;;;;;13.00;94885.00;;;;7392963;19;20159;-75
2022/10/19 05:41:46;;;;;;;494.08;29.23;;;;;12.90;94887.00;;;;7399254;19;20479;-75
2022/10/19 05:44:20;;;;;;;525.20;28.95;;;;;13.00;94890.00;;;;7394512;19;20157;-76
2022/10/19 05:47:03;;;;;;;218.98;22.92;;;;;13.00;94888.00;;;;7396776;19;20896;-75
2022/10/19 05:49:31;;;;;;;383.55;25.23;;;;;13.00;94895.00;;;;7397650;19;20186;-74
2022/10/19 05:52:05;;;;;;;221.95;22.52;;;;;13.00;94890.00;;;;7396544;19;20168;-75
2022/10/19 05:54:32;;;;;;;391.02;27.33;;;;;13.00;94894.00;;;;7394560;19;20165;-76
2022/10/19 05:57:00;;;;;;;114.00;19.33;;;;;12.90;94887.00;;;;7394621;19;20140;-75
2022/10/19 05:59:34;;;;;;;187.65;23.83;;;;;12.80;94881.00;;;;7398298;19;20193;-74
2022/10/19 06:02:01;;;;;;;363.35;27.73;;;;;12.90;94891.00;;;;7397521;19;20145;-74
2022/10/19 06:04:32;;;;;;;446.83;28.10;;;;;12.90;94889.00;;;;7394761;19;20176;-74
2022/10/19 06:07:09;;;;;;;350.05;28.52;;;;;13.00;94902.00;;;;7398361;19;20125;-75
2022/10/19 06:09:36;;;;;;;385.73;30.13;;;;;13.00;94894.00;;;;7396587;19;20151;-74
2022/10/19 06:12:04;;;;;;;484.42;29.15;;;;;12.90;94897.00;;;;7396191;19;20132;-74
2022/10/19 06:14:38;;;;;;;402.52;27.58;;;;;12.90;94899.00;;;;7395308;19;20151;-75
2022/10/19 06:17:06;;;;;;;465.92;27.75;;;;;12.90;94898.00;;;;7394336;19;20152;-75
2022/10/19 06:19:33;;;;;;;612.92;39.05;;;;;12.90;94900.00;;;;7395026;19;20160;-76
2022/10/19 06:22:07;;;;;;;318.33;26.33;;;;;12.90;94901.00;;;;7397042;19;20135;-75
2022/10/19 06:24:37;;;;;;;412.45;29.42;;;;;13.00;94904.00;;;;7392866;19;20147;-75
2022/10/19 06:27:05;;;;;;;540.92;33.85;;;;;13.00;94893.00;;;;7393844;19;20140;-74
2022/10/19 06:29:40;;;;;;;414.67;32.85;;;;;13.10;94897.00;;;;7396364;19;20156;-75
2022/10/19 06:32:07;;;;;;;542.45;33.05;;;;;13.00;94897.00;;;;7396476;19;20739;-75
2022/10/19 06:34:37;;;;;;;733.75;39.17;;;;;13.00;94901.00;;;;7392329;19;20156;-75
2022/10/19 06:37:26;;;;;;;748.92;40.50;;;;;13.00;94902.00;;;;7392475;19;20182;-75
2022/10/19 06:40:00;;;;;;;104.32;22.25;;;;;13.00;94901.00;;;;7394222;19;20502;-75
2022/10/19 06:42:38;;;;;;;135.10;24.05;;;;;13.00;94916.00;;;;7392993;19;20622;-75
2022/10/19 06:45:16;;;;;;;88.88;20.65;;;;;13.00;94914.00;;;;7392070;19;20191;-76
2022/10/19 06:48:00;;;;;;;73.55;20.48;;;;;13.00;94916.00;;;;7396781;19;20165;-76
2022/10/19 06:50:34;;;;;;;81.35;24.52;;;;;13.10;94915.00;;;;7388508;19;20153;-76
2022/10/19 06:53:08;;;;;;;63.83;22.27;;;;;13.10;94910.00;;;;7395771;19;20547;-75
2022/10/19 06:55:36;;;;;;;39.45;18.17;;;;;13.10;94906.00;;;;7395883;19;20144;-74
2022/10/19 06:58:06;;;;;;;47.97;21.02;;;;;13.20;94909.00;;;;7397351;19;20600;-75
2022/10/19 07:00:39;;;;;;;46.22;20.33;;;;;13.20;94909.00;;;;7394711;19;20464;-75
2022/10/19 07:03:09;;;;;;;110.68;24.20;;;;;13.30;94903.00;;;;7394346;19;20118;-74
2022/10/19 07:05:36;;;;;;;47.42;19.05;;;;;13.20;94906.00;;;;7396067;19;20135;-74
2022/10/19 07:08:13;;;;;;;19.88;14.43;;;;;13.30;94913.00;;;;7389946;19;20192;-75
2022/10/19 07:10:40;;;;;;;32.28;17.05;;;;;13.20;94916.00;;;;7392037;19;20149;-74
2022/10/19 07:13:08;;;;;;;32.40;17.67;;;;;13.20;94907.00;;;;7394078;19;20615;-74
2022/10/19 07:15:41;;;;;;;30.30;17.48;;;;;13.20;94908.00;;;;7394500;19;20762;-76
2022/10/19 07:18:09;;;;;;;34.25;18.35;;;;;13.20;94911.00;;;;7395220;19;20133;-76
2022/10/19 07:20:36;;;;;;;30.60;16.15;;;;;13.20;94911.00;;;;7391753;19;20506;-75
2022/10/19 07:23:10;;;;;;;40.67;19.33;;;;;13.30;94915.00;;;;7393585;19;20215;-75
2022/10/19 07:25:38;;;;;;;26.05;15.23;;;;;13.40;94908.00;;;;7395145;19;20125;-76
2022/10/19 07:28:05;;;;;;;30.15;15.88;;;;;13.30;94906.00;;;;7395440;19;20145;-76
2022/10/19 07:30:39;;;;;;;34.55;17.70;;;;;13.30;94909.00;;;;7392168;19;20208;-74
2022/10/19 07:33:07;;;;;;;31.70;18.67;;;;;13.30;94916.00;;;;7391860;19;20140;-75
2022/10/19 07:35:35;;;;;;;28.40;16.83;;;;;13.40;94917.00;;;;7391455;19;20615;-74
2022/10/19 07:38:10;;;;;;;29.65;18.08;;;;;13.40;94909.00;;;;7390910;19;20147;-74
2022/10/19 07:40:38;;;;;;;29.95;18.27;;;;;13.50;94912.00;;;;7389697;19;20343;-75
2022/10/19 07:43:10;;;;;;;36.50;18.67;;;;;13.60;94911.00;;;;7391858;19;20186;-73
2022/10/19 07:46:05;;;;;;;46.20;19.95;;;;;13.50;94905.00;;;;7392645;19;20224;-76
2022/10/19 07:48:34;;;;;;;35.88;18.95;;;;;13.60;94898.00;;;;7391081;19;20156;-75
2022/10/19 07:51:09;;;;;;;28.67;19.00;;;;;13.60;94904.00;;;;7393108;19;20152;-75
2022/10/19 07:53:38;;;;;;;29.80;17.88;;;;;13.60;94899.00;;;;7392472;19;20151;-74
2022/10/19 07:56:14;;;;;;;38.60;19.17;;;;;13.60;94902.00;;;;7391824;19;20486;-75
2022/10/19 07:58:58;;;;;;;29.30;18.33;;;;;13.70;94904.00;;;;7390409;19;20489;-75
2022/10/19 08:01:32;;;;;;;32.00;18.63;;;;;13.70;94915.00;;;;7393277;19;20124;-75
2022/10/19 08:04:06;;;;;;;34.35;20.33;;;;;13.70;94915.00;;;;7395465;19;20128;-76
2022/10/19 08:06:54;;;;;;;37.65;18.88;;;;;13.60;94907.00;;;;7392788;19;20140;-73
2022/10/19 08:09:33;;;;;;;46.88;20.52;;;;;13.70;94913.00;;;;7393151;19;20148;-74
2022/10/19 08:12:19;;;;;;;54.42;18.75;;;;;13.70;94916.00;;;;7389713;19;20156;-75
2022/10/19 08:14:54;;;;;;;36.78;17.77;;;;;13.80;94916.00;;;;7390354;19;20128;-75
2022/10/19 08:17:21;;;;;;;27.05;16.65;;;;;13.80;94910.00;;;;7393107;19;20151;-75
2022/10/19 08:19:49;;;;;;;38.70;18.23;;;;;13.90;94912.00;;;;7399553;19;20470;-75
2022/10/19 08:22:22;;;;;;;28.42;15.48;;;;;14.00;94910.00;;;;7398557;19;20131;-75
2022/10/19 08:24:54;;;;;;;24.38;15.38;;;;;13.90;94904.00;;;;7399936;19;20125;-76
2022/10/19 08:27:22;;;;;;;28.15;16.77;;;;;13.90;94907.00;;;;7399027;19;20154;-74
2022/10/19 08:30:03;;;;;;;24.08;14.90;;;;;14.00;94906.00;;;;7402116;19;20145;-74
2022/10/19 08:32:31;;;;;;;21.55;13.15;;;;;14.00;94898.00;;;;7399246;19;20136;-74
2022/10/19 08:35:05;;;;;;;29.58;15.40;;;;;14.10;94899.00;;;;7400114;19;20161;-75
2022/10/19 08:37:37;;;;;;;27.15;14.50;;;;;14.20;94901.00;;;;7402244;19;20482;-76
2022/10/19 08:40:24;;;;;;;21.13;13.38;;;;;14.10;94899.00;;;;7398356;19;20135;-77
2022/10/19 08:43:29;;;;;;;23.35;13.65;;;;;14.00;94897.00;;;;7398090;19;20125;-75
2022/10/19 08:46:20;;;;;;;23.63;14.07;;;;;13.90;94904.00;;;;7398696;19;20148;-76
2022/10/19 08:49:00;;;;;;;22.02;13.60;;;;;14.00;94896.00;;;;7397639;19;20141;-75
2022/10/19 08:51:34;;;;;;;23.27;14.13;;;;;14.10;94893.00;;;;7396940;19;20654;-74
2022/10/19 08:54:16;;;;;;;20.10;13.65;;;;;14.10;94888.00;;;;7389197;19;20140;-74
2022/10/19 08:57:20;;;;;;;31.92;13.63;;;;;14.20;94885.00;;;;7396949;19;20195;-76
2022/10/19 09:00:26;;;;;;;25.00;12.80;;;;;14.20;94884.00;;;;7396358;19;20133;-76
2022/10/19 09:03:21;;;;;;;26.73;13.43;;;;;14.30;94883.00;;;;7396818;19;20133;-74
2022/10/19 09:06:35;;;;;;;24.83;13.50;;;;;14.20;94879.00;;;;7394657;19;20149;-77
2022/10/19 09:09:05;;;;;;;29.55;13.30;;;;;14.30;94885.00;;;;7397703;19;20483;-76
2022/10/19 09:11:45;;;;;;;20.75;13.18;;;;;14.40;94885.00;;;;7399109;19;20481;-76
2022/10/19 09:14:41;;;;;;;26.35;14.10;;;;;14.40;94879.00;;;;7394556;19;20156;-76
2022/10/19 09:17:16;;;;;;;33.58;13.25;;;;;14.40;94887.00;;;;7394624;19;20144;-76
2022/10/19 09:19:43;;;;;;;36.42;12.23;;;;;14.20;94888.00;;;;7395354;19;20596;-76
2022/10/19 09:22:40;;;;;;;23.33;12.80;;;;;14.00;94873.00;;;;7394119;19;20143;-75
2022/10/19 09:25:28;;;;;;;20.17;12.85;;;;;14.10;94886.00;;;;7394941;19;20165;-75
2022/10/19 09:28:17;;;;;;;23.67;14.30;;;;;14.00;94877.00;;;;7398196;19;20689;-75
2022/10/19 09:31:00;;;;;;;15.93;12.25;;;;;14.10;94876.00;;;;7395209;19;20148;-74
2022/10/19 09:33:34;;;;;;;28.40;12.38;;;;;14.20;94880.00;;;;7396707;19;20156;-76
2022/10/19 09:36:11;;;;;;;19.98;13.02;;;;;14.20;94887.00;;;;7398617;19;20132;-77
2022/10/19 09:38:50;;;;;;;21.27;13.73;;;;;14.40;94883.00;;;;7395428;19;20168;-76
2022/10/19 09:41:27;;;;;;;22.33;13.70;;;;;14.30;94888.00;;;;7397104;19;20448;-74
2022/10/19 09:43:55;;;;;;;17.52;12.98;;;;;14.30;94875.00;;;;7397091;19;20145;-76
2022/10/19 09:46:51;;;;;;;17.45;12.95;;;;;14.40;94888.00;;;;7393039;19;20165;-75
2022/10/19 09:50:16;;;;;;;22.40;14.30;;;;;14.50;94884.00;;;;7392767;19;20162;-76
2022/10/19 09:52:45;;;;;;;20.90;14.93;;;;;14.60;94880.00;;;;7393495;19;20152;-79
2022/10/19 09:55:27;;;;;;;26.80;14.95;;;;;14.30;94875.00;;;;7393063;19;20155;-76
2022/10/19 09:58:23;;;;;;;34.05;15.93;;;;;14.20;94873.00;;;;7399056;19;20141;-76
2022/10/19 10:01:00;;;;;;;22.70;15.38;;;;;14.20;94875.00;;;;7396565;19;20145;-76
2022/10/19 10:03:39;;;;;;;19.55;14.32;;;;;14.20;94875.00;;;;7398086;19;20204;-76
2022/10/19 10:06:17;;;;;;;30.83;14.45;;;;;14.20;94874.00;;;;7394604;19;20497;-76
2022/10/19 10:08:57;;;;;;;20.95;14.60;;;;;14.10;94884.00;;;;7395475;19;20588;-75
2022/10/19 10:11:37;;;;;;;21.42;14.90;;;;;14.00;94872.00;;;;7396639;19;20499;-75
2022/10/19 10:14:22;;;;;;;21.85;14.77;;;;;14.20;94883.00;;;;7397052;19;20449;-77
2022/10/19 10:17:12;;;;;;;25.08;15.15;;;;;14.20;94881.00;;;;7395066;19;20155;-77
2022/10/19 10:19:58;;;;;;;23.77;15.68;;;;;14.40;94869.00;;;;7397108;19;20640;-77
2022/10/19 10:22:36;;;;;;;40.65;15.65;;;;;14.50;94866.00;;;;7394709;19;20144;-76
2022/10/19 10:25:15;;;;;;;24.38;15.18;;;;;14.90;94869.00;;;;7395657;19;20129;-75
2022/10/19 10:28:18;;;;;;;20.08;14.27;;;;;14.70;94856.00;;;;7397679;19;20145;-77
2022/10/19 10:30:47;;;;;;;21.25;14.30;;;;;14.90;94857.00;;;;7394892;19;20692;-79
2022/10/19 10:33:25;;;;;;;32.25;14.13;;;;;14.80;94855.00;;;;7395719;19;20157;-76
2022/10/19 10:36:11;;;;;;;20.20;13.13;;;;;14.80;94846.00;;;;7392216;19;20137;-79
2022/10/19 10:38:50;;;;;;;38.40;15.20;;;;;14.80;94843.00;;;;7394156;19;20158;-78
2022/10/19 10:41:22;;;;;;;18.50;13.55;;;;;14.80;94844.00;;;;7395639;19;20157;-75
2022/10/19 10:44:07;;;;;;;19.83;13.63;;;;;14.80;94835.00;;;;7394582;19;20155;-77
2022/10/19 10:46:57;;;;;;;18.15;13.05;;;;;14.70;94841.00;;;;7390753;19;20180;-77
2022/10/19 10:49:36;;;;;;;24.70;14.75;;;;;14.80;94834.00;;;;7395942;19;20137;-76
2022/10/19 10:52:12;;;;;;;41.60;13.82;;;;;14.90;94832.00;;;;7395679;19;20179;-74
2022/10/19 10:54:59;;;;;;;21.27;14.15;;;;;14.90;94835.00;;;;7393741;19;20147;-75
2022/10/19 10:57:42;;;;;;;21.10;14.18;;;;;15.00;94830.00;;;;7397613;19;20576;-76
2022/10/19 11:00:22;;;;;;;30.27;13.70;;;;;15.40;94830.00;;;;7392606;19;20152;-76
2022/10/19 11:03:10;;;;;;;19.27;12.90;;;;;15.30;94828.00;;;;7395885;19;20731;-76
2022/10/19 11:05:49;;;;;;;38.50;13.50;;;;;15.30;94831.00;;;;7396824;19;20212;-75
2022/10/19 11:08:35;;;;;;;22.17;13.68;;;;;15.10;94824.00;;;;7392282;19;20148;-75
2022/10/19 11:11:23;;;;;;;17.80;12.25;;;;;15.10;94825.00;;;;7394210;19;20506;-75
2022/10/19 11:14:18;;;;;;;21.10;13.25;;;;;14.90;94830.00;;;;7394376;19;20133;-75
2022/10/19 11:16:55;;;;;;;16.10;12.52;;;;;14.70;94831.00;;;;7392535;19;20636;-75
2022/10/19 11:19:40;;;;;;;52.47;13.85;;;;;14.70;94827.00;;;;7395575;19;20157;-75
2022/10/19 11:22:28;;;;;;;31.60;13.60;;;;;14.50;94827.00;;;;7390912;19;20633;-77
2022/10/19 11:25:18;;;;;;;26.80;13.80;;;;;14.70;94818.00;;;;7393379;19;20140;-76
2022/10/19 11:28:10;;;;;;;20.98;15.25;;;;;14.40;94810.00;;;;7395693;19;20627;-76
2022/10/19 11:30:49;;;;;;;21.67;14.38;;;;;14.40;94810.00;;;;7393097;19;20516;-76
2022/10/19 11:33:54;;;;;;;24.75;14.77;;;;;14.40;94810.00;;;;7395011;19;20632;-75
2022/10/19 11:36:34;;;;;;;24.25;14.55;;;;;14.40;94815.00;;;;7390673;19;20125;-76
2022/10/19 11:39:25;;;;;;;32.58;16.08;;;;;14.40;94807.00;;;;7394316;19;20141;-75
2022/10/19 11:42:03;;;;;;;23.85;15.00;;;;;14.10;94798.00;;;;7394249;19;20152;-76
2022/10/19 11:45:06;;;;;;;19.48;14.15;;;;;14.00;94800.00;;;;7390104;19;20590;-75
2022/10/19 11:48:02;;;;;;;18.00;13.65;;;;;14.00;94797.00;;;;7393606;19;20721;-76
2022/10/19 11:50:43;;;;;;;23.67;14.85;;;;;14.00;94801.00;;;;7391684;19;20145;-76
2022/10/19 11:53:34;;;;;;;19.10;14.07;;;;;14.00;94793.00;;;;7389409;19;20517;-76
2022/10/19 11:56:19;;;;;;;28.42;16.25;;;;;14.10;94790.00;;;;7391620;19;20153;-75
2022/10/19 11:59:08;;;;;;;19.65;15.20;;;;;14.00;94790.00;;;;7386153;19;20148;-75
2022/10/19 12:02:01;;;;;;;21.15;16.52;;;;;13.90;94788.00;;;;7390969;19;20128;-76
2022/10/19 12:05:03;;;;;;;19.63;15.95;;;;;14.00;94789.00;;;;7389670;19;20208;-77
2022/10/19 12:07:49;;;;;;;17.55;14.20;;;;;14.00;94784.00;;;;7393740;19;20608;-75
2022/10/19 12:10:38;;;;;;;19.60;14.98;;;;;13.90;94789.00;;;;7389561;19;20120;-75
2022/10/19 12:13:18;;;;;;;23.75;15.63;;;;;13.70;94782.00;;;;7392196;19;20518;-75
2022/10/19 12:15:53;;;;;;;22.45;16.02;;;;;13.80;94779.00;;;;7394329;19;20152;-74
2022/10/19 12:18:45;;;;;;;22.05;16.95;;;;;13.90;94778.00;;;;7390437;19;20154;-76
2022/10/19 12:21:24;;;;;;;23.08;17.00;;;;;14.00;94778.00;;;;7391346;19;20633;-75
2022/10/19 12:24:02;;;;;;;20.58;16.50;;;;;13.90;94792.00;;;;7392996;19;20516;-75
2022/10/19 12:26:34;;;;;;;22.48;16.05;;;;;13.70;94787.00;;;;7390383;19;20156;-74
2022/10/19 12:29:33;;;;;;;19.63;15.02;;;;;13.70;94779.00;;;;7391452;19;20468;-75
2022/10/19 12:32:10;;;;;;;21.83;14.95;;;;;13.80;94781.00;;;;7392181;19;20145;-75
2022/10/19 12:35:42;;;;;;;24.42;15.50;;;;;13.80;94775.00;;;;7391857;19;20139;-76
2022/10/19 12:38:43;;;;;;;18.45;14.45;;;;;13.60;94774.00;;;;7387401;19;20145;-75
2022/10/19 12:41:37;;;;;;;16.40;12.40;;;;;13.50;94766.00;;;;7390533;19;20141;-74
2022/10/19 12:44:22;;;;;;;13.93;11.40;;;;;13.40;94760.00;;;;7392391;19;20154;-75
2022/10/19 12:47:07;;;;;;;10.65;9.55;;;;;13.50;94755.00;;;;7388787;19;20295;-75